sensor_id;sensor_type;location;lat;lon;timestamp;temperature;humidity
1812;DHT22;904;47.814;11.134;2023-03-01T00:01:14;0.90;80.50
1812;DHT22;904;47.814;11.134;2023-03-01T00:03:43;1.00;80.60
1812;DHT22;904;47.814;11.134;2023-03-01T00:06:11;1.00;80.70
1812;DHT22;904;47.814;11.134;2023-03-01T00:08:39;1.00;80.70
1812;DHT22;904;47.814;11.134;2023-03-01T00:11:08;1.10;81.00
1812;DHT22;904;47.814;11.134;2023-03-01T00:13:36;1.10;81.00
1812;DHT22;904;47.814;11.134;2023-03-01T00:16:06;1.10;81.10
1812;DHT22;904;47.814;11.134;2023-03-01T00:18:38;1.00;80.90
1812;DHT22;904;47.814;11.134;2023-03-01T00:21:05;1.10;81.10
1812;DHT22;904;47.814;11.134;2023-03-01T00:23:34;1.10;81.10
1812;DHT22;904;47.814;11.134;2023-03-01T00:26:02;1.00;81.10
1812;DHT22;904;47.814;11.134;2023-03-01T00:28:29;1.10;81.10
1812;DHT22;904;47.814;11.134;2023-03-01T00:30:56;1.10;80.80
1812;DHT22;904;47.814;11.134;2023-03-01T00:33:30;1.10;80.70
1812;DHT22;904;47.814;11.134;2023-03-01T00:35:58;1.10;80.70
1812;DHT22;904;47.814;11.134;2023-03-01T00:38:25;1.00;80.60
1812;DHT22;904;47.814;11.134;2023-03-01T00:40:53;1.00;80.60
1812;DHT22;904;47.814;11.134;2023-03-01T00:43:21;1.00;80.90
1812;DHT22;904;47.814;11.134;2023-03-01T00:45:48;1.00;81.00
1812;DHT22;904;47.814;11.134;2023-03-01T00:48:18;1.00;81.00
1812;DHT22;904;47.814;11.134;2023-03-01T00:50:47;1.00;81.00
1812;DHT22;904;47.814;11.134;2023-03-01T00:53:19;1.10;81.30
1812;DHT22;904;47.814;11.134;2023-03-01T00:55:46;1.10;80.90
1812;DHT22;904;47.814;11.134;2023-03-01T00:58:14;1.10;81.00
1812;DHT22;904;47.814;11.134;2023-03-01T01:00:41;1.10;81.10
1812;DHT22;904;47.814;11.134;2023-03-01T01:03:08;1.00;80.90
1812;DHT22;904;47.814;11.134;2023-03-01T01:05:36;1.10;80.90
1812;DHT22;904;47.814;11.134;2023-03-01T01:08:05;1.00;80.70
1812;DHT22;904;47.814;11.134;2023-03-01T01:10:33;1.00;80.90
1812;DHT22;904;47.814;11.134;2023-03-01T01:13:01;1.10;81.20
1812;DHT22;904;47.814;11.134;2023-03-01T01:15:28;1.00;81.30
1812;DHT22;904;47.814;11.134;2023-03-01T01:17:55;1.00;81.30
1812;DHT22;904;47.814;11.134;2023-03-01T01:20:22;1.10;81.40
1812;DHT22;904;47.814;11.134;2023-03-01T01:22:50;1.10;81.20
1812;DHT22;904;47.814;11.134;2023-03-01T01:25:19;1.10;80.70
1812;DHT22;904;47.814;11.134;2023-03-01T01:27:47;1.00;80.90
1812;DHT22;904;47.814;11.134;2023-03-01T01:30:14;1.00;81.30
1812;DHT22;904;47.814;11.134;2023-03-01T01:32:41;1.00;81.80
1812;DHT22;904;47.814;11.134;2023-03-01T01:35:08;1.00;81.50
1812;DHT22;904;47.814;11.134;2023-03-01T01:37:36;1.00;81.50
1812;DHT22;904;47.814;11.134;2023-03-01T01:40:04;1.00;81.40
1812;DHT22;904;47.814;11.134;2023-03-01T01:42:33;1.00;81.50
1812;DHT22;904;47.814;11.134;2023-03-01T01:45:29;1.00;81.80
1812;DHT22;904;47.814;11.134;2023-03-01T01:48:00;1.10;82.00
1812;DHT22;904;47.814;11.134;2023-03-01T01:50:30;1.00;82.00
1812;DHT22;904;47.814;11.134;2023-03-01T01:53:06;1.10;82.20
1812;DHT22;904;47.814;11.134;2023-03-01T01:55:36;1.10;81.90
1812;DHT22;904;47.814;11.134;2023-03-01T01:58:06;1.10;81.60
1812;DHT22;904;47.814;11.134;2023-03-01T02:00:35;1.10;81.50
1812;DHT22;904;47.814;11.134;2023-03-01T02:03:08;1.10;81.90
1812;DHT22;904;47.814;11.134;2023-03-01T02:05:40;1.10;82.10
1812;DHT22;904;47.814;11.134;2023-03-01T02:08:12;1.10;82.10
1812;DHT22;904;47.814;11.134;2023-03-01T02:10:40;1.10;82.30
1812;DHT22;904;47.814;11.134;2023-03-01T02:13:09;1.10;82.30
1812;DHT22;904;47.814;11.134;2023-03-01T02:15:39;1.10;82.40
1812;DHT22;904;47.814;11.134;2023-03-01T02:18:08;1.10;82.40
1812;DHT22;904;47.814;11.134;2023-03-01T02:20:43;1.10;82.20
1812;DHT22;904;47.814;11.134;2023-03-01T02:23:12;1.10;82.10
1812;DHT22;904;47.814;11.134;2023-03-01T02:25:47;1.10;82.30
1812;DHT22;904;47.814;11.134;2023-03-01T02:28:25;1.20;82.50
1812;DHT22;904;47.814;11.134;2023-03-01T02:31:01;1.20;82.30
1812;DHT22;904;47.814;11.134;2023-03-01T02:33:44;1.20;82.60
1812;DHT22;904;47.814;11.134;2023-03-01T02:36:18;1.20;82.70
1812;DHT22;904;47.814;11.134;2023-03-01T02:38:48;1.20;82.80
1812;DHT22;904;47.814;11.134;2023-03-01T02:41:18;1.20;83.10
1812;DHT22;904;47.814;11.134;2023-03-01T02:43:48;1.20;83.30
1812;DHT22;904;47.814;11.134;2023-03-01T02:46:17;1.20;83.30
1812;DHT22;904;47.814;11.134;2023-03-01T02:48:47;1.20;83.20
1812;DHT22;904;47.814;11.134;2023-03-01T02:51:40;1.20;83.30
1812;DHT22;904;47.814;11.134;2023-03-01T02:54:18;1.20;83.60
1812;DHT22;904;47.814;11.134;2023-03-01T02:56:47;1.20;83.40
1812;DHT22;904;47.814;11.134;2023-03-01T02:59:19;1.20;83.60
1812;DHT22;904;47.814;11.134;2023-03-01T03:01:46;1.20;83.90
1812;DHT22;904;47.814;11.134;2023-03-01T03:04:15;1.20;83.90
1812;DHT22;904;47.814;11.134;2023-03-01T03:06:44;1.20;84.00
1812;DHT22;904;47.814;11.134;2023-03-01T03:09:13;1.20;83.90
1812;DHT22;904;47.814;11.134;2023-03-01T03:11:41;1.20;83.90
1812;DHT22;904;47.814;11.134;2023-03-01T03:14:08;1.30;84.10
1812;DHT22;904;47.814;11.134;2023-03-01T03:16:41;1.30;84.00
1812;DHT22;904;47.814;11.134;2023-03-01T03:19:10;1.30;84.10
1812;DHT22;904;47.814;11.134;2023-03-01T03:21:37;1.30;84.30
1812;DHT22;904;47.814;11.134;2023-03-01T03:24:05;1.30;85.40
1812;DHT22;904;47.814;11.134;2023-03-01T03:26:32;1.40;84.90
1812;DHT22;904;47.814;11.134;2023-03-01T03:29:00;1.40;85.50
1812;DHT22;904;47.814;11.134;2023-03-01T03:31:27;1.40;85.50
1812;DHT22;904;47.814;11.134;2023-03-01T03:33:56;1.40;85.80
1812;DHT22;904;47.814;11.134;2023-03-01T03:36:24;1.50;86.20
1812;DHT22;904;47.814;11.134;2023-03-01T03:38:51;1.50;86.40
1812;DHT22;904;47.814;11.134;2023-03-01T03:41:19;1.50;86.30
1812;DHT22;904;47.814;11.134;2023-03-01T03:43:49;1.60;86.40
1812;DHT22;904;47.814;11.134;2023-03-01T03:46:16;1.60;86.20
1812;DHT22;904;47.814;11.134;2023-03-01T03:48:44;1.60;86.00
1812;DHT22;904;47.814;11.134;2023-03-01T03:51:15;1.70;85.30
1812;DHT22;904;47.814;11.134;2023-03-01T03:53:44;1.70;86.00
1812;DHT22;904;47.814;11.134;2023-03-01T03:56:12;1.70;85.30
1812;DHT22;904;47.814;11.134;2023-03-01T03:58:40;1.70;84.80
1812;DHT22;904;47.814;11.134;2023-03-01T04:01:07;1.70;84.90
1812;DHT22;904;47.814;11.134;2023-03-01T04:03:35;1.70;84.50
1812;DHT22;904;47.814;11.134;2023-03-01T04:06:03;1.80;84.10
1812;DHT22;904;47.814;11.134;2023-03-01T04:08:33;1.80;83.60
1812;DHT22;904;47.814;11.134;2023-03-01T04:11:02;1.80;83.90
1812;DHT22;904;47.814;11.134;2023-03-01T04:13:52;1.80;84.00
1812;DHT22;904;47.814;11.134;2023-03-01T04:16:20;1.80;83.10
1812;DHT22;904;47.814;11.134;2023-03-01T04:18:47;1.80;83.40
1812;DHT22;904;47.814;11.134;2023-03-01T04:21:14;1.80;83.40
1812;DHT22;904;47.814;11.134;2023-03-01T04:23:43;1.80;83.00
1812;DHT22;904;47.814;11.134;2023-03-01T04:26:10;1.80;83.20
1812;DHT22;904;47.814;11.134;2023-03-01T04:28:42;1.80;83.30
1812;DHT22;904;47.814;11.134;2023-03-01T04:31:12;1.80;83.40
1812;DHT22;904;47.814;11.134;2023-03-01T04:33:43;1.80;83.60
1812;DHT22;904;47.814;11.134;2023-03-01T04:36:12;1.90;83.70
1812;DHT22;904;47.814;11.134;2023-03-01T04:38:40;1.90;83.60
1812;DHT22;904;47.814;11.134;2023-03-01T04:41:10;1.90;83.20
1812;DHT22;904;47.814;11.134;2023-03-01T04:43:38;1.90;83.00
1812;DHT22;904;47.814;11.134;2023-03-01T04:46:07;1.90;83.00
1812;DHT22;904;47.814;11.134;2023-03-01T04:48:35;1.90;82.90
1812;DHT22;904;47.814;11.134;2023-03-01T04:51:03;1.90;82.70
1812;DHT22;904;47.814;11.134;2023-03-01T04:53:32;1.90;82.60
1812;DHT22;904;47.814;11.134;2023-03-01T04:55:59;1.90;82.40
1812;DHT22;904;47.814;11.134;2023-03-01T04:58:28;1.90;82.40
1812;DHT22;904;47.814;11.134;2023-03-01T05:00:57;1.90;82.20
1812;DHT22;904;47.814;11.134;2023-03-01T05:03:25;1.90;82.00
1812;DHT22;904;47.814;11.134;2023-03-01T05:05:53;1.90;82.00
1812;DHT22;904;47.814;11.134;2023-03-01T05:08:20;2.00;82.30
1812;DHT22;904;47.814;11.134;2023-03-01T05:10:50;2.00;82.30
1812;DHT22;904;47.814;11.134;2023-03-01T05:13:17;1.90;81.80
1812;DHT22;904;47.814;11.134;2023-03-01T05:15:54;1.90;81.60
1812;DHT22;904;47.814;11.134;2023-03-01T05:18:22;1.90;81.80
1812;DHT22;904;47.814;11.134;2023-03-01T05:20:52;1.90;81.60
1812;DHT22;904;47.814;11.134;2023-03-01T05:23:23;1.90;81.60
1812;DHT22;904;47.814;11.134;2023-03-01T05:25:51;2.00;81.80
1812;DHT22;904;47.814;11.134;2023-03-01T05:28:24;2.00;81.60
1812;DHT22;904;47.814;11.134;2023-03-01T05:30:52;2.00;81.40
1812;DHT22;904;47.814;11.134;2023-03-01T05:33:20;2.00;81.30
1812;DHT22;904;47.814;11.134;2023-03-01T05:35:48;1.90;81.10
1812;DHT22;904;47.814;11.134;2023-03-01T05:38:17;2.00;81.10
1812;DHT22;904;47.814;11.134;2023-03-01T05:40:46;2.00;81.00
1812;DHT22;904;47.814;11.134;2023-03-01T05:43:15;1.90;81.20
1812;DHT22;904;47.814;11.134;2023-03-01T05:45:44;1.90;81.00
1812;DHT22;904;47.814;11.134;2023-03-01T05:48:13;2.00;81.00
1812;DHT22;904;47.814;11.134;2023-03-01T05:50:45;1.90;81.00
1812;DHT22;904;47.814;11.134;2023-03-01T05:53:15;1.90;81.10
1812;DHT22;904;47.814;11.134;2023-03-01T05:55:43;1.90;81.10
1812;DHT22;904;47.814;11.134;2023-03-01T05:58:14;1.90;81.30
1812;DHT22;904;47.814;11.134;2023-03-01T06:00:44;1.90;81.00
1812;DHT22;904;47.814;11.134;2023-03-01T06:03:15;1.90;81.00
1812;DHT22;904;47.814;11.134;2023-03-01T06:05:43;1.90;81.40
1812;DHT22;904;47.814;11.134;2023-03-01T06:08:11;1.90;81.30
1812;DHT22;904;47.814;11.134;2023-03-01T06:10:38;1.90;81.30
1812;DHT22;904;47.814;11.134;2023-03-01T06:13:08;1.90;81.40
1812;DHT22;904;47.814;11.134;2023-03-01T06:15:35;1.90;81.30
1812;DHT22;904;47.814;11.134;2023-03-01T06:18:02;1.90;81.40
1812;DHT22;904;47.814;11.134;2023-03-01T06:20:32;2.00;81.30
1812;DHT22;904;47.814;11.134;2023-03-01T06:23:00;2.00;80.90
1812;DHT22;904;47.814;11.134;2023-03-01T06:25:27;2.00;80.80
1812;DHT22;904;47.814;11.134;2023-03-01T06:27:54;2.00;80.60
1812;DHT22;904;47.814;11.134;2023-03-01T06:30:23;2.00;80.50
1812;DHT22;904;47.814;11.134;2023-03-01T06:32:51;2.10;80.60
1812;DHT22;904;47.814;11.134;2023-03-01T06:35:19;2.00;80.20
1812;DHT22;904;47.814;11.134;2023-03-01T06:37:48;2.00;80.40
1812;DHT22;904;47.814;11.134;2023-03-01T06:40:16;2.10;80.70
1812;DHT22;904;47.814;11.134;2023-03-01T06:42:47;2.00;80.60
1812;DHT22;904;47.814;11.134;2023-03-01T06:45:16;2.10;80.70
1812;DHT22;904;47.814;11.134;2023-03-01T06:47:52;2.20;80.70
1812;DHT22;904;47.814;11.134;2023-03-01T06:50:21;2.20;80.50
1812;DHT22;904;47.814;11.134;2023-03-01T06:52:55;2.30;80.90
1812;DHT22;904;47.814;11.134;2023-03-01T06:55:22;2.40;80.90
1812;DHT22;904;47.814;11.134;2023-03-01T06:57:54;2.40;80.30
1812;DHT22;904;47.814;11.134;2023-03-01T07:00:23;2.40;79.70
1812;DHT22;904;47.814;11.134;2023-03-01T07:02:51;2.40;79.50
1812;DHT22;904;47.814;11.134;2023-03-01T07:05:18;2.50;78.90
1812;DHT22;904;47.814;11.134;2023-03-01T07:07:46;2.50;78.40
1812;DHT22;904;47.814;11.134;2023-03-01T07:10:15;2.50;78.20
1812;DHT22;904;47.814;11.134;2023-03-01T07:12:42;2.50;78.10
1812;DHT22;904;47.814;11.134;2023-03-01T07:15:10;2.50;78.00
1812;DHT22;904;47.814;11.134;2023-03-01T07:17:37;2.50;77.60
1812;DHT22;904;47.814;11.134;2023-03-01T07:20:05;2.50;77.60
1812;DHT22;904;47.814;11.134;2023-03-01T07:22:35;2.50;77.40
1812;DHT22;904;47.814;11.134;2023-03-01T07:25:02;2.50;77.30
1812;DHT22;904;47.814;11.134;2023-03-01T07:27:32;2.50;77.60
1812;DHT22;904;47.814;11.134;2023-03-01T07:30:00;2.50;77.50
1812;DHT22;904;47.814;11.134;2023-03-01T07:32:27;2.60;77.10
1812;DHT22;904;47.814;11.134;2023-03-01T07:34:54;2.60;76.70
1812;DHT22;904;47.814;11.134;2023-03-01T07:37:21;2.50;76.50
1812;DHT22;904;47.814;11.134;2023-03-01T07:39:49;2.50;76.50
1812;DHT22;904;47.814;11.134;2023-03-01T07:42:16;2.60;76.60
1812;DHT22;904;47.814;11.134;2023-03-01T07:44:50;2.60;76.40
1812;DHT22;904;47.814;11.134;2023-03-01T07:47:17;2.60;76.80
1812;DHT22;904;47.814;11.134;2023-03-01T07:49:44;2.60;76.00
1812;DHT22;904;47.814;11.134;2023-03-01T07:52:12;2.60;75.80
1812;DHT22;904;47.814;11.134;2023-03-01T07:54:42;2.60;75.70
1812;DHT22;904;47.814;11.134;2023-03-01T07:57:09;2.60;75.80
1812;DHT22;904;47.814;11.134;2023-03-01T07:59:37;2.60;75.20
1812;DHT22;904;47.814;11.134;2023-03-01T08:02:05;2.70;75.50
1812;DHT22;904;47.814;11.134;2023-03-01T08:04:32;2.70;75.50
1812;DHT22;904;47.814;11.134;2023-03-01T08:07:00;2.70;74.80
1812;DHT22;904;47.814;11.134;2023-03-01T08:09:27;2.80;75.20
1812;DHT22;904;47.814;11.134;2023-03-01T08:11:55;2.80;74.70
1812;DHT22;904;47.814;11.134;2023-03-01T08:14:23;2.80;73.70
1812;DHT22;904;47.814;11.134;2023-03-01T08:16:50;2.80;73.70
1812;DHT22;904;47.814;11.134;2023-03-01T08:19:18;2.80;73.70
1812;DHT22;904;47.814;11.134;2023-03-01T08:21:46;2.80;73.20
1812;DHT22;904;47.814;11.134;2023-03-01T08:24:13;2.80;73.10
1812;DHT22;904;47.814;11.134;2023-03-01T08:26:40;2.80;73.20
1812;DHT22;904;47.814;11.134;2023-03-01T08:29:07;2.90;73.00
1812;DHT22;904;47.814;11.134;2023-03-01T08:31:37;3.00;72.50
1812;DHT22;904;47.814;11.134;2023-03-01T08:34:06;3.00;72.60
1812;DHT22;904;47.814;11.134;2023-03-01T08:36:39;3.00;72.70
1812;DHT22;904;47.814;11.134;2023-03-01T08:39:12;3.10;72.60
1812;DHT22;904;47.814;11.134;2023-03-01T08:41:40;3.10;72.60
1812;DHT22;904;47.814;11.134;2023-03-01T08:44:08;3.20;72.70
1812;DHT22;904;47.814;11.134;2023-03-01T08:46:37;3.20;71.80
1812;DHT22;904;47.814;11.134;2023-03-01T08:49:05;3.30;72.20
1812;DHT22;904;47.814;11.134;2023-03-01T08:51:32;3.30;71.60
1812;DHT22;904;47.814;11.134;2023-03-01T08:54:04;3.40;71.00
1812;DHT22;904;47.814;11.134;2023-03-01T08:56:31;3.40;70.80
1812;DHT22;904;47.814;11.134;2023-03-01T08:58:58;3.40;70.90
1812;DHT22;904;47.814;11.134;2023-03-01T09:01:26;3.50;70.60
1812;DHT22;904;47.814;11.134;2023-03-01T09:03:53;3.60;70.10
1812;DHT22;904;47.814;11.134;2023-03-01T09:06:20;3.60;69.90
1812;DHT22;904;47.814;11.134;2023-03-01T09:08:52;3.70;70.00
1812;DHT22;904;47.814;11.134;2023-03-01T09:11:22;3.70;69.80
1812;DHT22;904;47.814;11.134;2023-03-01T09:13:50;3.80;69.60
1812;DHT22;904;47.814;11.134;2023-03-01T09:16:21;3.90;69.20
1812;DHT22;904;47.814;11.134;2023-03-01T09:18:49;4.10;68.60
1812;DHT22;904;47.814;11.134;2023-03-01T09:21:18;4.10;68.30
1812;DHT22;904;47.814;11.134;2023-03-01T09:23:47;4.30;68.00
1812;DHT22;904;47.814;11.134;2023-03-01T09:26:17;4.30;67.10
1812;DHT22;904;47.814;11.134;2023-03-01T09:28:46;4.40;66.40
1812;DHT22;904;47.814;11.134;2023-03-01T09:31:15;4.50;67.00
1812;DHT22;904;47.814;11.134;2023-03-01T09:33:45;4.50;65.60
1812;DHT22;904;47.814;11.134;2023-03-01T09:36:14;4.50;65.50
1812;DHT22;904;47.814;11.134;2023-03-01T09:38:41;4.50;65.40
1812;DHT22;904;47.814;11.134;2023-03-01T09:41:16;4.60;64.90
1812;DHT22;904;47.814;11.134;2023-03-01T09:43:50;4.60;65.00
1812;DHT22;904;47.814;11.134;2023-03-01T09:46:22;4.70;64.50
1812;DHT22;904;47.814;11.134;2023-03-01T09:48:52;4.80;63.70
1812;DHT22;904;47.814;11.134;2023-03-01T09:51:27;4.90;63.90
1812;DHT22;904;47.814;11.134;2023-03-01T09:53:56;5.00;63.50
1812;DHT22;904;47.814;11.134;2023-03-01T09:56:32;5.10;62.90
1812;DHT22;904;47.814;11.134;2023-03-01T09:59:10;5.20;62.60
1812;DHT22;904;47.814;11.134;2023-03-01T10:01:46;5.30;62.50
1812;DHT22;904;47.814;11.134;2023-03-01T10:04:37;5.40;61.80
1812;DHT22;904;47.814;11.134;2023-03-01T10:07:20;5.50;61.10
1812;DHT22;904;47.814;11.134;2023-03-01T10:09:48;5.70;60.20
1812;DHT22;904;47.814;11.134;2023-03-01T10:12:17;5.90;60.10
1812;DHT22;904;47.814;11.134;2023-03-01T10:14:54;6.30;59.30
1812;DHT22;904;47.814;11.134;2023-03-01T10:17:28;6.70;59.00
1812;DHT22;904;47.814;11.134;2023-03-01T10:20:15;7.10;58.50
1812;DHT22;904;47.814;11.134;2023-03-01T10:22:43;7.40;57.00
1812;DHT22;904;47.814;11.134;2023-03-01T10:25:18;7.50;55.90
1812;DHT22;904;47.814;11.134;2023-03-01T10:27:52;7.60;55.20
1812;DHT22;904;47.814;11.134;2023-03-01T10:30:32;7.60;54.90
1812;DHT22;904;47.814;11.134;2023-03-01T10:33:02;7.70;54.50
1812;DHT22;904;47.814;11.134;2023-03-01T10:35:35;7.70;54.00
1812;DHT22;904;47.814;11.134;2023-03-01T10:38:05;7.70;54.10
1812;DHT22;904;47.814;11.134;2023-03-01T10:40:33;7.80;53.80
1812;DHT22;904;47.814;11.134;2023-03-01T10:43:04;7.80;53.20
1812;DHT22;904;47.814;11.134;2023-03-01T10:45:37;7.80;52.80
1812;DHT22;904;47.814;11.134;2023-03-01T10:48:10;7.70;52.50
1812;DHT22;904;47.814;11.134;2023-03-01T10:50:39;7.60;53.00
1812;DHT22;904;47.814;11.134;2023-03-01T10:53:21;7.60;52.50
1812;DHT22;904;47.814;11.134;2023-03-01T10:56:01;7.40;52.30
1812;DHT22;904;47.814;11.134;2023-03-01T10:58:29;7.30;52.50
1812;DHT22;904;47.814;11.134;2023-03-01T11:01:01;7.20;53.20
1812;DHT22;904;47.814;11.134;2023-03-01T11:03:30;7.10;53.20
1812;DHT22;904;47.814;11.134;2023-03-01T11:06:04;7.00;53.40
1812;DHT22;904;47.814;11.134;2023-03-01T11:08:35;6.90;54.20
1812;DHT22;904;47.814;11.134;2023-03-01T11:11:22;6.90;53.80
1812;DHT22;904;47.814;11.134;2023-03-01T11:13:58;6.90;54.50
1812;DHT22;904;47.814;11.134;2023-03-01T11:16:33;6.80;53.90
1812;DHT22;904;47.814;11.134;2023-03-01T11:19:14;6.80;54.30
1812;DHT22;904;47.814;11.134;2023-03-01T11:21:50;6.70;54.40
1812;DHT22;904;47.814;11.134;2023-03-01T11:24:23;6.70;54.10
1812;DHT22;904;47.814;11.134;2023-03-01T11:26:56;6.60;54.60
1812;DHT22;904;47.814;11.134;2023-03-01T11:29:29;6.60;54.40
1812;DHT22;904;47.814;11.134;2023-03-01T11:32:02;6.60;54.70
1812;DHT22;904;47.814;11.134;2023-03-01T11:34:38;6.70;54.80
1812;DHT22;904;47.814;11.134;2023-03-01T11:37:21;6.70;55.10
1812;DHT22;904;47.814;11.134;2023-03-01T11:39:59;6.70;54.60
1812;DHT22;904;47.814;11.134;2023-03-01T11:42:39;6.60;54.40
1812;DHT22;904;47.814;11.134;2023-03-01T11:45:12;6.60;54.70
1812;DHT22;904;47.814;11.134;2023-03-01T11:48:09;6.50;54.20
1812;DHT22;904;47.814;11.134;2023-03-01T11:50:46;6.40;54.80
1812;DHT22;904;47.814;11.134;2023-03-01T11:53:35;6.40;55.20
1812;DHT22;904;47.814;11.134;2023-03-01T11:56:13;6.30;55.10
1812;DHT22;904;47.814;11.134;2023-03-01T12:02:10;6.20;55.10
1812;DHT22;904;47.814;11.134;2023-03-01T12:05:01;6.00;55.50
1812;DHT22;904;47.814;11.134;2023-03-01T12:07:42;6.10;56.20
1812;DHT22;904;47.814;11.134;2023-03-01T12:10:25;6.00;56.00
1812;DHT22;904;47.814;11.134;2023-03-01T12:13:17;6.10;56.40
1812;DHT22;904;47.814;11.134;2023-03-01T12:16:12;6.00;56.50
1812;DHT22;904;47.814;11.134;2023-03-01T12:19:00;6.00;56.50
1812;DHT22;904;47.814;11.134;2023-03-01T12:21:40;6.00;56.10
1812;DHT22;904;47.814;11.134;2023-03-01T12:24:46;5.90;56.40
1812;DHT22;904;47.814;11.134;2023-03-01T12:27:30;5.90;56.70
1812;DHT22;904;47.814;11.134;2023-03-01T12:30:10;5.80;56.70
1812;DHT22;904;47.814;11.134;2023-03-01T12:32:55;5.80;57.00
1812;DHT22;904;47.814;11.134;2023-03-01T12:35:39;5.70;57.10
1812;DHT22;904;47.814;11.134;2023-03-01T12:38:22;5.70;57.30
1812;DHT22;904;47.814;11.134;2023-03-01T12:41:26;5.70;57.20
1812;DHT22;904;47.814;11.134;2023-03-01T12:44:04;5.80;57.40
1812;DHT22;904;47.814;11.134;2023-03-01T12:46:47;5.80;57.00
1812;DHT22;904;47.814;11.134;2023-03-01T12:49:23;5.80;56.90
1812;DHT22;904;47.814;11.134;2023-03-01T12:52:02;5.70;56.70
1812;DHT22;904;47.814;11.134;2023-03-01T12:54:37;5.80;57.10
1812;DHT22;904;47.814;11.134;2023-03-01T12:57:14;5.70;56.80
1812;DHT22;904;47.814;11.134;2023-03-01T13:00:00;5.70;56.20
1812;DHT22;904;47.814;11.134;2023-03-01T13:02:40;5.60;56.80
1812;DHT22;904;47.814;11.134;2023-03-01T13:05:24;5.40;57.00
1812;DHT22;904;47.814;11.134;2023-03-01T13:08:01;5.30;57.40
1812;DHT22;904;47.814;11.134;2023-03-01T13:10:39;5.20;57.50
1812;DHT22;904;47.814;11.134;2023-03-01T13:13:18;5.10;58.10
1812;DHT22;904;47.814;11.134;2023-03-01T13:15:46;5.10;58.30
1812;DHT22;904;47.814;11.134;2023-03-01T13:18:31;5.10;58.20
1812;DHT22;904;47.814;11.134;2023-03-01T13:21:01;5.10;58.20
1812;DHT22;904;47.814;11.134;2023-03-01T13:23:34;5.00;58.80
1812;DHT22;904;47.814;11.134;2023-03-01T13:26:08;4.90;59.40
1812;DHT22;904;47.814;11.134;2023-03-01T13:28:53;4.90;59.70
1812;DHT22;904;47.814;11.134;2023-03-01T13:34:44;4.70;60.10
1812;DHT22;904;47.814;11.134;2023-03-01T13:37:23;4.60;60.50
1812;DHT22;904;47.814;11.134;2023-03-01T13:40:00;4.70;61.50
1812;DHT22;904;47.814;11.134;2023-03-01T13:42:40;4.70;61.30
1812;DHT22;904;47.814;11.134;2023-03-01T13:45:34;4.80;61.50
1812;DHT22;904;47.814;11.134;2023-03-01T13:48:08;4.80;61.50
1812;DHT22;904;47.814;11.134;2023-03-01T13:50:43;4.90;61.30
1812;DHT22;904;47.814;11.134;2023-03-01T13:53:16;4.90;61.30
1812;DHT22;904;47.814;11.134;2023-03-01T13:55:46;4.90;61.60
1812;DHT22;904;47.814;11.134;2023-03-01T13:58:21;4.90;62.00
1812;DHT22;904;47.814;11.134;2023-03-01T14:00:55;4.90;62.10
1812;DHT22;904;47.814;11.134;2023-03-01T14:03:23;4.90;61.30
1812;DHT22;904;47.814;11.134;2023-03-01T14:06:06;4.90;61.00
1812;DHT22;904;47.814;11.134;2023-03-01T14:08:34;5.00;61.00
1812;DHT22;904;47.814;11.134;2023-03-01T14:11:20;5.00;60.70
1812;DHT22;904;47.814;11.134;2023-03-01T14:14:16;5.00;60.70
1812;DHT22;904;47.814;11.134;2023-03-01T14:16:54;4.90;61.10
1812;DHT22;904;47.814;11.134;2023-03-01T14:19:25;4.90;60.70
1812;DHT22;904;47.814;11.134;2023-03-01T14:22:12;4.90;60.70
1812;DHT22;904;47.814;11.134;2023-03-01T14:24:47;5.00;60.80
1812;DHT22;904;47.814;11.134;2023-03-01T14:27:26;4.90;60.50
1812;DHT22;904;47.814;11.134;2023-03-01T14:29:57;5.00;60.90
1812;DHT22;904;47.814;11.134;2023-03-01T14:32:27;5.00;60.90
1812;DHT22;904;47.814;11.134;2023-03-01T14:34:56;5.00;61.00
1812;DHT22;904;47.814;11.134;2023-03-01T14:37:26;5.10;60.90
1812;DHT22;904;47.814;11.134;2023-03-01T14:39:55;5.10;60.80
1812;DHT22;904;47.814;11.134;2023-03-01T14:42:24;5.10;60.80
1812;DHT22;904;47.814;11.134;2023-03-01T14:44:56;5.10;59.80
1812;DHT22;904;47.814;11.134;2023-03-01T14:47:29;5.10;61.10
1812;DHT22;904;47.814;11.134;2023-03-01T14:50:03;5.10;60.70
1812;DHT22;904;47.814;11.134;2023-03-01T14:52:35;5.20;60.20
1812;DHT22;904;47.814;11.134;2023-03-01T14:55:07;5.10;60.10
1812;DHT22;904;47.814;11.134;2023-03-01T14:57:43;5.00;60.20
1812;DHT22;904;47.814;11.134;2023-03-01T15:00:20;4.90;60.60
1812;DHT22;904;47.814;11.134;2023-03-01T15:02:50;4.90;60.60
1812;DHT22;904;47.814;11.134;2023-03-01T15:05:24;4.90;60.90
1812;DHT22;904;47.814;11.134;2023-03-01T15:07:53;4.80;60.70
1812;DHT22;904;47.814;11.134;2023-03-01T15:10:22;4.80;61.10
1812;DHT22;904;47.814;11.134;2023-03-01T15:12:50;4.70;61.30
1812;DHT22;904;47.814;11.134;2023-03-01T15:15:34;4.70;61.80
1812;DHT22;904;47.814;11.134;2023-03-01T15:18:04;4.60;62.50
1812;DHT22;904;47.814;11.134;2023-03-01T15:20:33;4.60;63.00
1812;DHT22;904;47.814;11.134;2023-03-01T15:23:04;4.50;62.90
1812;DHT22;904;47.814;11.134;2023-03-01T15:25:32;4.50;62.80
1812;DHT22;904;47.814;11.134;2023-03-01T15:28:01;4.50;63.00
1812;DHT22;904;47.814;11.134;2023-03-01T15:30:32;4.50;62.90
1812;DHT22;904;47.814;11.134;2023-03-01T15:33:18;4.40;63.00
1812;DHT22;904;47.814;11.134;2023-03-01T15:35:50;4.40;63.30
1812;DHT22;904;47.814;11.134;2023-03-01T15:38:32;4.40;63.20
1812;DHT22;904;47.814;11.134;2023-03-01T15:41:01;4.40;63.50
1812;DHT22;904;47.814;11.134;2023-03-01T15:43:47;4.30;64.00
1812;DHT22;904;47.814;11.134;2023-03-01T15:46:23;4.30;63.80
1812;DHT22;904;47.814;11.134;2023-03-01T15:48:57;4.20;64.30
1812;DHT22;904;47.814;11.134;2023-03-01T15:51:33;4.10;64.50
1812;DHT22;904;47.814;11.134;2023-03-01T15:54:08;4.00;64.80
1812;DHT22;904;47.814;11.134;2023-03-01T15:56:43;4.00;64.90
1812;DHT22;904;47.814;11.134;2023-03-01T15:59:12;4.00;65.40
1812;DHT22;904;47.814;11.134;2023-03-01T16:01:42;3.90;65.50
1812;DHT22;904;47.814;11.134;2023-03-01T16:04:10;4.00;65.80
1812;DHT22;904;47.814;11.134;2023-03-01T16:06:42;4.00;65.70
1812;DHT22;904;47.814;11.134;2023-03-01T16:09:09;3.90;65.60
1812;DHT22;904;47.814;11.134;2023-03-01T16:11:38;3.80;66.20
1812;DHT22;904;47.814;11.134;2023-03-01T16:14:07;3.80;66.80
1812;DHT22;904;47.814;11.134;2023-03-01T16:16:35;3.70;66.80
1812;DHT22;904;47.814;11.134;2023-03-01T16:19:04;3.70;67.10
1812;DHT22;904;47.814;11.134;2023-03-01T16:21:32;3.60;67.50
1812;DHT22;904;47.814;11.134;2023-03-01T16:24:01;3.50;68.20
1812;DHT22;904;47.814;11.134;2023-03-01T16:26:28;3.40;68.50
1812;DHT22;904;47.814;11.134;2023-03-01T16:28:56;3.40;69.00
1812;DHT22;904;47.814;11.134;2023-03-01T16:31:26;3.30;69.40
1812;DHT22;904;47.814;11.134;2023-03-01T16:33:58;3.20;69.70
1812;DHT22;904;47.814;11.134;2023-03-01T16:36:27;3.20;70.20
1812;DHT22;904;47.814;11.134;2023-03-01T16:38:55;3.20;70.60
1812;DHT22;904;47.814;11.134;2023-03-01T16:41:30;3.10;70.60
1812;DHT22;904;47.814;11.134;2023-03-01T16:43:58;3.10;70.90
1812;DHT22;904;47.814;11.134;2023-03-01T16:46:26;3.10;71.30
1812;DHT22;904;47.814;11.134;2023-03-01T16:48:54;3.00;71.40
1812;DHT22;904;47.814;11.134;2023-03-01T16:51:27;2.90;71.70
1812;DHT22;904;47.814;11.134;2023-03-01T16:54:00;2.90;72.30